Time;durP1;ratioP1;P1;durP2;ratioP2;P2;SDS_P1;SDS_P2;PMS_P1;PMS_P2;Temp;Humidity;BMP_temperature;BMP_pressure;BME280_temperature;BME280_humidity;BME280_pressure;Samples;Min_cycle;Max_cycle;Signal;HPM_P1;HPM_P2
2023/01/03 00:00:23;;;;;;;25.25;12.45;;;;;;;;;;4952922;28;20550;-65
2023/01/03 00:02:49;;;;;;;20.70;11.10;;;;;;;;;;4951966;28;20033;-65
2023/01/03 00:05:15;;;;;;;22.70;10.60;;;;;;;;;;4949949;28;20030;-65
2023/01/03 00:07:41;;;;;;;19.50;9.98;;;;;;;;;;4950326;28;20042;-65
2023/01/03 00:10:09;;;;;;;17.25;9.27;;;;;;;;;;4946111;28;20570;-64
2023/01/03 00:12:35;;;;;;;21.50;9.85;;;;;;;;;;4950591;28;20076;-65
2023/01/03 00:15:02;;;;;;;20.17;8.88;;;;;;;;;;4949566;28;20838;-65
2023/01/03 00:17:29;;;;;;;18.25;8.30;;;;;;;;;;4946706;28;20279;-66
2023/01/03 00:19:55;;;;;;;17.58;7.80;;;;;;;;;;4948288;28;20089;-66
2023/01/03 00:22:22;;;;;;;16.15;7.50;;;;;;;;;;4950740;28;20088;-65
2023/01/03 00:24:49;;;;;;;15.80;8.27;;;;;;;;;;4949564;28;20066;-65
2023/01/03 00:27:15;;;;;;;16.73;7.82;;;;;;;;;;4948119;28;20036;-65
2023/01/03 00:29:41;;;;;;;16.65;7.47;;;;;;;;;;4950964;28;20038;-65
2023/01/03 00:32:08;;;;;;;19.02;6.63;;;;;;;;;;4949096;28;20681;-66
2023/01/03 00:34:34;;;;;;;;;;;;;;;;;;4952472;28;20045;-65
2023/01/03 00:37:00;;;;;;;16.33;5.55;;;;;;;;;;4948087;28;20214;-66
2023/01/03 00:39:26;;;;;;;;;;;;;;;;;;4951263;28;20030;-65
2023/01/03 00:41:52;;;;;;;14.65;6.18;;;;;;;;;;4953198;28;20437;-65
2023/01/03 00:44:19;;;;;;;15.65;5.85;;;;;;;;;;4949828;28;20026;-65
2023/01/03 00:46:45;;;;;;;13.30;5.75;;;;;;;;;;4949194;28;20034;-65
2023/01/03 00:49:11;;;;;;;;;;;;;;;;;;4949896;28;20437;-65
2023/01/03 00:51:39;;;;;;;15.15;6.60;;;;;;;;;;4954867;28;19940;-65
2023/01/03 00:54:05;;;;;;;16.58;6.65;;;;;;;;;;4951253;28;20132;-65
2023/01/03 00:56:33;;;;;;;14.98;6.72;;;;;;;;;;4955491;28;20027;-66
2023/01/03 00:58:59;;;;;;;17.20;7.22;;;;;;;;;;4944334;28;20108;-67
2023/01/03 01:01:27;;;;;;;19.15;7.95;;;;;;;;;;4952406;28;20026;-66
2023/01/03 01:03:58;;;;;;;15.00;6.90;;;;;;;;;;4953385;28;20042;-66
2023/01/03 01:06:26;;;;;;;15.70;7.10;;;;;;;;;;4953073;28;20512;-66
2023/01/03 01:08:53;;;;;;;13.38;6.50;;;;;;;;;;4953712;28;20041;-66
2023/01/03 01:11:19;;;;;;;14.63;6.72;;;;;;;;;;4947603;28;20692;-66
2023/01/03 01:13:46;;;;;;;14.57;7.43;;;;;;;;;;4954294;28;20037;-66
2023/01/03 01:16:15;;;;;;;17.33;7.90;;;;;;;;;;4950450;28;20293;-66
2023/01/03 01:18:43;;;;;;;17.08;7.32;;;;;;;;;;4951900;28;20047;-66
2023/01/03 01:21:11;;;;;;;16.95;7.53;;;;;;;;;;4952285;28;20038;-66
2023/01/03 01:23:38;;;;;;;14.40;5.72;;;;;;;;;;4951309;28;20917;-66
2023/01/03 01:26:05;;;;;;;16.40;5.57;;;;;;;;;;4950443;28;20385;-67
2023/01/03 01:28:31;;;;;;;14.07;4.90;;;;;;;;;;4953571;28;20030;-66
2023/01/03 01:30:57;;;;;;;;;;;;;;;;;;4951046;28;20030;-66
2023/01/03 01:33:23;;;;;;;11.75;4.57;;;;;;;;;;4955231;28;20019;-64
2023/01/03 01:35:50;;;;;;;11.95;4.53;;;;;;;;;;4949723;28;20577;-64
2023/01/03 01:38:16;;;;;;;15.90;4.65;;;;;;;;;;4944352;28;20038;-65
2023/01/03 01:40:42;;;;;;;12.82;5.25;;;;;;;;;;4945777;28;20034;-65
2023/01/03 01:46:04;;;;;;;13.18;5.10;;;;;;;;;;4943315;28;20089;-65
2023/01/03 01:48:30;;;;;;;13.85;4.43;;;;;;;;;;4946368;28;20327;-65
2023/01/03 01:50:56;;;;;;;12.23;4.60;;;;;;;;;;4948197;28;20046;-65
2023/01/03 01:53:29;;;;;;;15.93;5.20;;;;;;;;;;4949891;28;20026;-65
2023/01/03 01:56:02;;;;;;;13.93;4.72;;;;;;;;;;4956202;28;20057;-66
2023/01/03 01:58:31;;;;;;;15.98;5.30;;;;;;;;;;4957229;28;20424;-65
2023/01/03 02:00:57;;;;;;;14.02;4.93;;;;;;;;;;4953630;28;20137;-66
2023/01/03 02:03:24;;;;;;;11.73;4.35;;;;;;;;;;4958219;28;20084;-65
2023/01/03 02:05:51;;;;;;;11.68;4.75;;;;;;;;;;4955725;28;20038;-65
2023/01/03 02:08:17;;;;;;;10.98;4.20;;;;;;;;;;4956143;28;20429;-66
2023/01/03 02:11:11;;;;;;;13.07;4.53;;;;;;;;;;4955215;28;20663;-66
2023/01/03 02:13:46;;;;;;;13.63;4.60;;;;;;;;;;4956571;28;20038;-66
2023/01/03 02:16:19;;;;;;;12.35;4.38;;;;;;;;;;4949043;28;20774;-66
2023/01/03 02:18:54;;;;;;;11.15;5.00;;;;;;;;;;4958979;28;20038;-66
2023/01/03 02:21:20;;;;;;;11.70;4.75;;;;;;;;;;4954452;28;20100;-66
2023/01/03 02:24:16;;;;;;;12.30;5.10;;;;;;;;;;4957674;28;20034;-65
2023/01/03 02:26:54;;;;;;;13.43;4.80;;;;;;;;;;4927266;28;20523;-65
2023/01/03 02:29:38;;;;;;;13.13;4.47;;;;;;;;;;4924672;28;20753;-66
2023/01/03 02:32:11;;;;;;;12.20;4.68;;;;;;;;;;4926058;28;20035;-66
2023/01/03 02:34:52;;;;;;;12.55;4.82;;;;;;;;;;4929317;28;20043;-65
2023/01/03 02:37:21;;;;;;;13.32;4.40;;;;;;;;;;4927978;28;20047;-65
2023/01/03 02:39:54;;;;;;;10.88;4.55;;;;;;;;;;4930802;28;20396;-65
2023/01/03 02:45:27;;;;;;;15.27;4.93;;;;;;;;;;4925420;28;22825;-66
2023/01/03 02:48:14;;;;;;;14.50;4.70;;;;;;;;;;4926235;28;20047;-65
2023/01/03 02:50:46;;;;;;;17.42;4.82;;;;;;;;;;4924009;28;20130;-65
2023/01/03 02:53:14;;;;;;;13.18;5.45;;;;;;;;;;4907794;28;20031;-65
2023/01/03 02:55:41;;;;;;;12.75;5.38;;;;;;;;;;4926832;28;20517;-65
2023/01/03 02:58:15;;;;;;;17.30;7.60;;;;;;;;;;4922166;28;20122;-65
2023/01/03 03:00:43;;;;;;;20.52;9.10;;;;;;;;;;4933219;28;20468;-65
2023/01/03 03:03:14;;;;;;;19.45;8.00;;;;;;;;;;4939620;28;20374;-65
2023/01/03 03:05:49;;;;;;;17.95;7.82;;;;;;;;;;4957405;28;20053;-64
2023/01/03 03:08:15;;;;;;;15.32;7.70;;;;;;;;;;4952006;28;20053;-67
2023/01/03 03:13:34;;;;;;;15.18;6.45;;;;;;;;;;4955857;28;20517;-65
2023/01/03 03:16:06;;;;;;;14.75;6.32;;;;;;;;;;4953102;28;20039;-64
2023/01/03 03:18:32;;;;;;;12.55;5.00;;;;;;;;;;4958184;28;20049;-64
2023/01/03 03:26:36;;;;;;;17.37;5.57;;;;;;;;;;4955128;28;20040;-64
2023/01/03 03:29:08;;;;;;;16.40;5.68;;;;;;;;;;4952668;28;20750;-64
2023/01/03 03:31:40;;;;;;;13.60;4.75;;;;;;;;;;4955639;28;20550;-66
2023/01/03 03:34:08;;;;;;;13.00;5.10;;;;;;;;;;4949646;28;20038;-64
2023/01/03 03:36:34;;;;;;;12.35;4.70;;;;;;;;;;4953146;28;20125;-64
2023/01/03 03:39:02;;;;;;;11.38;4.55;;;;;;;;;;4951915;28;20026;-64
2023/01/03 03:47:05;;;;;;;;;;;;;;;;;;4951924;28;20125;-64
2023/01/03 03:49:37;;;;;;;16.58;5.13;;;;;;;;;;4953302;28;20024;-64
2023/01/03 03:52:05;;;;;;;12.82;4.63;;;;;;;;;;4951373;28;20396;-65
2023/01/03 03:54:33;;;;;;;12.65;4.28;;;;;;;;;;4955477;28;20282;-64
2023/01/03 03:57:11;;;;;;;14.90;4.90;;;;;;;;;;4951034;28;20350;-65
2023/01/03 03:59:38;;;;;;;13.20;4.90;;;;;;;;;;4956282;28;20066;-65
2023/01/03 04:02:06;;;;;;;11.43;4.60;;;;;;;;;;4951455;28;20266;-65
2023/01/03 04:04:35;;;;;;;14.98;5.43;;;;;;;;;;4954285;28;20037;-65
2023/01/03 04:07:01;;;;;;;15.93;5.53;;;;;;;;;;4952929;28;20030;-65
2023/01/03 04:09:28;;;;;;;13.68;5.07;;;;;;;;;;4954396;28;20065;-65
2023/01/03 04:11:54;;;;;;;13.98;4.72;;;;;;;;;;4951614;28;20076;-65
2023/01/03 04:14:20;;;;;;;14.18;4.90;;;;;;;;;;4949828;28;20737;-65
2023/01/03 04:16:46;;;;;;;15.00;5.00;;;;;;;;;;4951947;28;20030;-65
2023/01/03 04:19:12;;;;;;;14.40;5.45;;;;;;;;;;4950439;28;21410;-65
2023/01/03 04:21:39;;;;;;;14.55;6.35;;;;;;;;;;4956063;28;20371;-65
2023/01/03 04:24:05;;;;;;;17.30;6.47;;;;;;;;;;4951128;28;20465;-65
2023/01/03 04:26:31;;;;;;;15.23;5.53;;;;;;;;;;4956046;28;20909;-65
2023/01/03 04:28:57;;;;;;;14.20;5.40;;;;;;;;;;4950273;28;20474;-65
2023/01/03 04:31:24;;;;;;;12.32;5.13;;;;;;;;;;4955205;28;20413;-64
2023/01/03 04:33:50;;;;;;;10.55;4.95;;;;;;;;;;4953484;28;20535;-65
2023/01/03 04:36:17;;;;;;;14.02;4.32;;;;;;;;;;4950439;28;20626;-66
2023/01/03 04:38:43;;;;;;;12.32;4.68;;;;;;;;;;4953603;28;20064;-66
2023/01/03 04:41:09;;;;;;;;;;;;;;;;;;4950976;28;20034;-66
2023/01/03 04:46:21;;;;;;;10.85;4.30;;;;;;;;;;4951994;28;20559;-65
2023/01/03 04:48:47;;;;;;;10.68;3.88;;;;;;;;;;4955473;28;20080;-65
2023/01/03 04:51:13;;;;;;;10.88;3.80;;;;;;;;;;4950720;28;20416;-65
2023/01/03 04:53:39;;;;;;;15.50;4.05;;;;;;;;;;4954521;28;20046;-64
2023/01/03 04:56:05;;;;;;;9.68;3.65;;;;;;;;;;4947928;28;20030;-65
2023/01/03 04:58:31;;;;;;;13.35;4.00;;;;;;;;;;4954733;28;20501;-64
2023/01/03 05:01:02;;;;;;;11.68;4.20;;;;;;;;;;4950497;28;20401;-65
2023/01/03 05:03:28;;;;;;;13.65;4.25;;;;;;;;;;4951764;28;20396;-65
2023/01/03 05:05:54;;;;;;;;;;;;;;;;;;4954081;28;20631;-65
2023/01/03 05:08:20;;;;;;;13.77;4.60;;;;;;;;;;4950543;28;19917;-65
2023/01/03 05:10:47;;;;;;;10.25;4.22;;;;;;;;;;4952749;28;20835;-64
2023/01/03 05:13:13;;;;;;;13.32;4.75;;;;;;;;;;4949952;28;20475;-65
2023/01/03 05:15:39;;;;;;;16.48;4.97;;;;;;;;;;4955639;28;20092;-65
2023/01/03 05:18:05;;;;;;;13.98;4.72;;;;;;;;;;4950715;28;20038;-65
2023/01/03 05:26:05;;;;;;;13.90;4.30;;;;;;;;;;4951616;28;20041;-66
2023/01/03 05:28:31;;;;;;;11.18;3.88;;;;;;;;;;4956074;28;20025;-65
2023/01/03 05:30:58;;;;;;;10.35;3.92;;;;;;;;;;4953850;28;20034;-65
2023/01/03 05:33:24;;;;;;;;;;;;;;;;;;4957592;28;20132;-65
2023/01/03 05:35:50;;;;;;;10.82;4.60;;;;;;;;;;4958180;28;19979;-65
2023/01/03 05:38:16;;;;;;;14.45;4.88;;;;;;;;;;4952520;28;20037;-65
2023/01/03 05:40:42;;;;;;;;;;;;;;;;;;4972615;28;20443;-65
2023/01/03 05:43:09;;;;;;;24.73;5.90;;;;;;;;;;4954221;28;20276;-65
2023/01/03 05:45:36;;;;;;;19.83;5.65;;;;;;;;;;4952024;28;20034;-65
2023/01/03 05:48:02;;;;;;;14.75;5.00;;;;;;;;;;4953206;28;20970;-65
2023/01/03 05:50:28;;;;;;;15.57;4.85;;;;;;;;;;4957870;28;20048;-65
2023/01/03 05:52:54;;;;;;;15.02;4.80;;;;;;;;;;4957650;28;20041;-65
2023/01/03 05:55:20;;;;;;;14.07;5.18;;;;;;;;;;4954818;28;20082;-66
2023/01/03 05:57:46;;;;;;;10.63;4.57;;;;;;;;;;4957897;28;20149;-66
2023/01/03 06:00:13;;;;;;;10.00;4.43;;;;;;;;;;4954986;28;20072;-64
2023/01/03 06:02:39;;;;;;;14.35;4.38;;;;;;;;;;4958389;28;20092;-66
2023/01/03 06:05:06;;;;;;;16.73;4.60;;;;;;;;;;4954327;28;20459;-65
2023/01/03 06:07:32;;;;;;;19.75;6.07;;;;;;;;;;4956670;28;20027;-65
2023/01/03 06:10:01;;;;;;;17.65;5.60;;;;;;;;;;4955873;28;20481;-65
2023/01/03 06:12:28;;;;;;;15.98;5.78;;;;;;;;;;4958590;28;20100;-65
2023/01/03 06:14:54;;;;;;;19.10;5.95;;;;;;;;;;4957154;28;20447;-65
2023/01/03 06:20:06;;;;;;;14.80;5.72;;;;;;;;;;4953415;28;20467;-64
2023/01/03 06:22:32;;;;;;;;;;;;;;;;;;4956879;28;20967;-65
2023/01/03 06:24:58;;;;;;;17.55;6.32;;;;;;;;;;4955409;28;19918;-66
2023/01/03 06:27:24;;;;;;;17.88;7.20;;;;;;;;;;4955287;28;20033;-66
2023/01/03 06:29:50;;;;;;;18.42;6.88;;;;;;;;;;4956516;28;20349;-66
2023/01/03 06:32:16;;;;;;;18.77;6.50;;;;;;;;;;4952610;28;20207;-66
2023/01/03 06:34:42;;;;;;;15.07;6.65;;;;;;;;;;4954358;28;20038;-65
2023/01/03 06:37:08;;;;;;;21.23;6.53;;;;;;;;;;4951468;28;20034;-65
2023/01/03 06:39:35;;;;;;;19.38;6.97;;;;;;;;;;4953397;28;20147;-65
2023/01/03 06:42:38;;;;;;;20.45;7.07;;;;;;;;;;4949943;28;20108;-66
2023/01/03 06:53:10;;;;;;;23.98;7.57;;;;;;;;;;4954904;28;20022;-65
2023/01/03 06:53:13;;;;;;;22.13;7.43;;;;;;;;;;4953429;28;20116;-64
2023/01/03 06:55:41;;;;;;;16.15;6.63;;;;;;;;;;4953114;28;20041;-65
2023/01/03 06:58:07;;;;;;;19.00;7.15;;;;;;;;;;4954951;28;20038;-66
2023/01/03 07:00:33;;;;;;;;;;;;;;;;;;4952689;28;20023;-65
2023/01/03 07:02:59;;;;;;;18.88;6.45;;;;;;;;;;4950301;28;20372;-65
2023/01/03 07:05:25;;;;;;;20.52;6.35;;;;;;;;;;4955325;28;20794;-67
2023/01/03 07:07:52;;;;;;;17.63;7.28;;;;;;;;;;4956494;28;21184;-64
2023/01/03 07:10:18;;;;;;;19.85;6.93;;;;;;;;;;4953071;28;20048;-65
2023/01/03 07:15:29;;;;;;;18.63;6.90;;;;;;;;;;4955757;28;20495;-65
2023/01/03 07:17:55;;;;;;;16.60;6.78;;;;;;;;;;4954312;28;20069;-66
2023/01/03 07:20:21;;;;;;;;;;;;;;;;;;4951383;28;20031;-65
2023/01/03 07:22:47;;;;;;;17.05;7.35;;;;;;;;;;4951506;28;20358;-65
2023/01/03 07:25:13;;;;;;;19.25;7.72;;;;;;;;;;4966135;28;20161;-66
2023/01/03 07:27:39;;;;;;;14.55;6.95;;;;;;;;;;4953381;28;20105;-67
2023/01/03 07:30:06;;;;;;;14.00;5.63;;;;;;;;;;4964784;28;20148;-66
2023/01/03 07:32:32;;;;;;;14.05;6.22;;;;;;;;;;4955606;28;20038;-67
2023/01/03 07:34:58;;;;;;;16.92;6.50;;;;;;;;;;4949065;28;20326;-65
2023/01/03 07:37:24;;;;;;;17.90;6.72;;;;;;;;;;4953465;28;20066;-66
2023/01/03 07:39:50;;;;;;;15.70;6.72;;;;;;;;;;4954485;28;20441;-64
2023/01/03 07:45:01;;;;;;;25.00;10.40;;;;;;;;;;4943606;28;20029;-65
2023/01/03 07:47:28;;;;;;;19.25;8.05;;;;;;;;;;4952516;28;20076;-66
2023/01/03 07:49:54;;;;;;;17.63;8.48;;;;;;;;;;4951793;28;20030;-66
2023/01/03 07:52:20;;;;;;;20.77;8.27;;;;;;;;;;4953756;28;20037;-66
2023/01/03 07:54:46;;;;;;;20.95;8.38;;;;;;;;;;4951479;28;20043;-65
2023/01/03 07:57:14;;;;;;;17.25;7.53;;;;;;;;;;4951282;28;20327;-65
2023/01/03 07:59:40;;;;;;;17.58;7.22;;;;;;;;;;4951932;28;21349;-65
2023/01/03 08:02:06;;;;;;;17.23;7.30;;;;;;;;;;4952034;28;20130;-67
2023/01/03 08:04:32;;;;;;;15.55;6.72;;;;;;;;;;4953496;28;20189;-65
2023/01/03 08:06:58;;;;;;;18.40;7.65;;;;;;;;;;4951343;28;20073;-67
2023/01/03 08:14:54;;;;;;;15.73;7.25;;;;;;;;;;4954740;28;20109;-65
2023/01/03 08:17:21;;;;;;;17.48;8.52;;;;;;;;;;4951996;28;20034;-66
2023/01/03 08:19:47;;;;;;;17.65;8.32;;;;;;;;;;4954535;28;20372;-67
2023/01/03 08:22:13;;;;;;;21.02;8.80;;;;;;;;;;4949974;28;20513;-65
2023/01/03 08:24:39;;;;;;;18.85;7.85;;;;;;;;;;4953538;28;20018;-65
2023/01/03 08:27:05;;;;;;;17.38;7.68;;;;;;;;;;4951489;28;20139;-67
2023/01/03 08:29:31;;;;;;;16.52;7.47;;;;;;;;;;4951283;28;20037;-66
2023/01/03 08:32:01;;;;;;;18.15;7.68;;;;;;;;;;4952642;28;20129;-67
2023/01/03 08:34:29;;;;;;;18.33;7.90;;;;;;;;;;4953137;28;20719;-66
2023/01/03 08:36:59;;;;;;;15.20;7.65;;;;;;;;;;4953761;28;20469;-67
2023/01/03 08:39:27;;;;;;;17.08;7.65;;;;;;;;;;4953584;28;20329;-67
2023/01/03 08:42:00;;;;;;;17.77;7.80;;;;;;;;;;4949325;28;20469;-65
2023/01/03 08:44:26;;;;;;;19.90;7.93;;;;;;;;;;4952528;28;20432;-66
2023/01/03 08:46:54;;;;;;;25.00;7.22;;;;;;;;;;4957575;28;20046;-66
2023/01/03 08:49:20;;;;;;;19.20;7.47;;;;;;;;;;4951064;28;20069;-66
2023/01/03 08:51:46;;;;;;;19.35;7.90;;;;;;;;;;4954759;28;20041;-66
2023/01/03 08:54:13;;;;;;;18.63;8.02;;;;;;;;;;4953870;28;20365;-65
2023/01/03 08:56:39;;;;;;;18.65;8.50;;;;;;;;;;4946769;28;20030;-67
2023/01/03 08:59:06;;;;;;;21.00;8.68;;;;;;;;;;4950114;28;20087;-66
2023/01/03 09:01:32;;;;;;;18.52;9.25;;;;;;;;;;4951699;28;20461;-67
2023/01/03 09:03:58;;;;;;;22.00;9.80;;;;;;;;;;4952860;28;20621;-65
2023/01/03 09:06:25;;;;;;;16.75;8.50;;;;;;;;;;4952413;28;20153;-66
2023/01/03 09:08:51;;;;;;;24.10;9.05;;;;;;;;;;4953325;28;20022;-66
2023/01/03 09:11:17;;;;;;;19.77;8.95;;;;;;;;;;4949432;28;20559;-67
2023/01/03 09:13:43;;;;;;;19.67;9.60;;;;;;;;;;4954654;28;20038;-67
2023/01/03 09:16:11;;;;;;;16.00;8.38;;;;;;;;;;4951521;28;20092;-66
2023/01/03 09:18:38;;;;;;;19.40;8.95;;;;;;;;;;4954890;28;20457;-67
2023/01/03 09:21:04;;;;;;;19.98;10.18;;;;;;;;;;4948503;28;20132;-66
2023/01/03 09:23:30;;;;;;;;;;;;;;;;;;4953349;28;20118;-66
2023/01/03 09:25:56;;;;;;;21.10;10.45;;;;;;;;;;4949140;28;20233;-67
2023/01/03 09:28:23;;;;;;;18.52;9.35;;;;;;;;;;4951591;28;20296;-66
2023/01/03 09:30:49;;;;;;;26.73;11.55;;;;;;;;;;4950070;28;20030;-67
2023/01/03 09:33:15;;;;;;;24.40;12.27;;;;;;;;;;4951603;28;21617;-66
2023/01/03 09:35:41;;;;;;;29.35;16.00;;;;;;;;;;4952892;28;20093;-67
2023/01/03 09:38:08;;;;;;;25.02;12.48;;;;;;;;;;4948189;28;20660;-66
2023/01/03 09:40:39;;;;;;;24.15;12.15;;;;;;;;;;4951964;28;20576;-66
2023/01/03 09:43:13;;;;;;;24.60;12.98;;;;;;;;;;4949857;28;20433;-65
2023/01/03 09:45:53;;;;;;;23.88;12.10;;;;;;;;;;4951502;28;20010;-66
2023/01/03 09:48:25;;;;;;;23.58;12.20;;;;;;;;;;4949308;28;20509;-65
2023/01/03 09:50:51;;;;;;;26.33;12.52;;;;;;;;;;4951678;28;20703;-66
2023/01/03 10:05:17;;;;;;;28.27;10.85;;;;;;;;;;4949706;28;20373;-65
2023/01/03 10:08:02;;;;;;;27.00;11.57;;;;;;;;;;4950968;28;20027;-66
2023/01/03 10:10:28;;;;;;;20.33;8.57;;;;;;;;;;4951839;28;20041;-68
2023/01/03 10:13:13;;;;;;;22.73;9.15;;;;;;;;;;4951340;28;20038;-65
2023/01/03 10:15:45;;;;;;;22.27;8.93;;;;;;;;;;4956955;28;20050;-66
2023/01/03 10:18:20;;;;;;;17.88;7.95;;;;;;;;;;4952217;28;20070;-66
2023/01/03 10:20:56;;;;;;;17.10;8.43;;;;;;;;;;4954763;28;20056;-67
2023/01/03 10:23:23;;;;;;;23.92;9.48;;;;;;;;;;4951788;28;20027;-66
2023/01/03 10:25:49;;;;;;;21.50;9.65;;;;;;;;;;4956169;28;20557;-66
2023/01/03 10:28:19;;;;;;;23.58;9.95;;;;;;;;;;4955948;28;20069;-67
2023/01/03 10:30:48;;;;;;;22.65;10.90;;;;;;;;;;4955098;28;20419;-67
2023/01/03 10:33:15;;;;;;;22.67;10.23;;;;;;;;;;4952879;28;20127;-66
2023/01/03 10:35:41;;;;;;;21.63;10.73;;;;;;;;;;4958625;28;20398;-67
2023/01/03 10:38:07;;;;;;;21.63;9.35;;;;;;;;;;4951851;28;20471;-66
2023/01/03 10:40:53;;;;;;;21.23;10.07;;;;;;;;;;4952437;28;20030;-66
2023/01/03 10:43:31;;;;;;;21.60;10.82;;;;;;;;;;4952410;28;20425;-68
2023/01/03 10:45:59;;;;;;;206.20;18.30;;;;;;;;;;4955393;28;20031;-66
2023/01/03 10:48:26;;;;;;;148.50;16.00;;;;;;;;;;4955392;28;20851;-66
2023/01/03 10:50:52;;;;;;;127.57;16.58;;;;;;;;;;4956776;28;20026;-67
2023/01/03 10:53:20;;;;;;;117.72;15.10;;;;;;;;;;4952188;28;20038;-66
2023/01/03 10:55:51;;;;;;;49.03;11.07;;;;;;;;;;4953814;28;20030;-66
2023/01/03 10:58:24;;;;;;;29.30;10.68;;;;;;;;;;4951530;28;20037;-67
2023/01/03 11:00:52;;;;;;;57.45;12.82;;;;;;;;;;4955953;28;20479;-67
2023/01/03 11:03:23;;;;;;;28.05;11.02;;;;;;;;;;4949331;28;20031;-66
2023/01/03 11:06:09;;;;;;;27.10;10.45;;;;;;;;;;4954711;28;20771;-67
2023/01/03 11:08:48;;;;;;;22.73;10.05;;;;;;;;;;4957056;28;20360;-66
2023/01/03 11:11:30;;;;;;;22.52;9.43;;;;;;;;;;4953134;28;20053;-66
2023/01/03 11:14:11;;;;;;;24.67;9.07;;;;;;;;;;4957389;28;20475;-66
2023/01/03 11:16:37;;;;;;;22.17;9.25;;;;;;;;;;4955602;28;20069;-67
2023/01/03 11:19:05;;;;;;;23.02;9.85;;;;;;;;;;4949901;28;20038;-66
2023/01/03 11:21:34;;;;;;;25.40;8.57;;;;;;;;;;4954644;28;20039;-66
2023/01/03 11:24:07;;;;;;;22.73;8.57;;;;;;;;;;4951198;28;20038;-66
2023/01/03 11:27:11;;;;;;;24.80;9.40;;;;;;;;;;4950921;28;20125;-66
2023/01/03 11:30:01;;;;;;;21.45;9.25;;;;;;;;;;4953123;28;20023;-66
2023/01/03 11:32:28;;;;;;;17.38;7.85;;;;;;;;;;4953439;28;20038;-66
2023/01/03 11:35:00;;;;;;;22.13;8.10;;;;;;;;;;4951971;28;20038;-66
2023/01/03 11:37:29;;;;;;;37.53;9.48;;;;;;;;;;4935194;28;20137;-66
2023/01/03 11:40:01;;;;;;;38.15;9.02;;;;;;;;;;4952480;28;22113;-66
2023/01/03 11:42:39;;;;;;;29.10;10.60;;;;;;;;;;4953144;28;20058;-67
2023/01/03 11:45:08;;;;;;;22.15;10.70;;;;;;;;;;4950026;28;20627;-68
2023/01/03 11:47:53;;;;;;;19.63;11.02;;;;;;;;;;4953224;28;20633;-66
2023/01/03 11:50:23;;;;;;;21.80;10.63;;;;;;;;;;4950985;28;20532;-67
2023/01/03 11:52:49;;;;;;;24.15;11.75;;;;;;;;;;4954634;28;20834;-67
2023/01/03 11:55:25;;;;;;;26.58;13.95;;;;;;;;;;4951598;28;20639;-66
2023/01/03 11:58:09;;;;;;;25.30;12.60;;;;;;;;;;4955145;28;20532;-66
2023/01/03 12:00:55;;;;;;;24.63;13.23;;;;;;;;;;4944048;28;20039;-66
2023/01/03 12:03:33;;;;;;;20.88;13.27;;;;;;;;;;4950660;28;20045;-66
2023/01/03 12:06:08;;;;;;;21.77;12.63;;;;;;;;;;4932942;28;20031;-68
2023/01/03 12:08:37;;;;;;;23.47;13.87;;;;;;;;;;4935078;28;20031;-67
2023/01/03 12:11:09;;;;;;;29.85;15.23;;;;;;;;;;4932994;28;20026;-66
2023/01/03 12:13:54;;;;;;;26.70;16.38;;;;;;;;;;4934338;28;20326;-66
2023/01/03 12:16:28;;;;;;;25.95;14.73;;;;;;;;;;4932865;28;20208;-66
2023/01/03 12:19:05;;;;;;;30.88;15.10;;;;;;;;;;4936799;28;20777;-70
2023/01/03 12:21:35;;;;;;;20.65;12.18;;;;;;;;;;4929216;28;20030;-69
2023/01/03 12:24:09;;;;;;;25.55;13.85;;;;;;;;;;4927156;28;20053;-70
2023/01/03 12:26:36;;;;;;;24.77;14.55;;;;;;;;;;4930237;28;20053;-71
2023/01/03 12:29:12;;;;;;;35.03;16.02;;;;;;;;;;4930265;28;20030;-69
2023/01/03 12:31:41;;;;;;;29.65;14.52;;;;;;;;;;4931746;28;20043;-70
2023/01/03 12:34:22;;;;;;;24.88;14.60;;;;;;;;;;4928852;28;20552;-70
2023/01/03 12:36:50;;;;;;;27.67;15.77;;;;;;;;;;4929504;28;20039;-70
2023/01/03 12:39:31;;;;;;;28.85;16.75;;;;;;;;;;4928452;28;20030;-68
2023/01/03 12:42:02;;;;;;;27.25;15.95;;;;;;;;;;4929812;28;20398;-71
2023/01/03 12:44:35;;;;;;;25.30;14.60;;;;;;;;;;4931617;28;20049;-70
2023/01/03 12:47:02;;;;;;;24.58;14.15;;;;;;;;;;4926894;28;20069;-70
2023/01/03 12:49:28;;;;;;;20.75;11.77;;;;;;;;;;4932051;28;20041;-70
2023/01/03 12:51:54;;;;;;;24.25;12.82;;;;;;;;;;4932407;28;20034;-70
2023/01/03 12:54:26;;;;;;;23.73;12.85;;;;;;;;;;4929222;28;20136;-69
2023/01/03 12:56:56;;;;;;;23.60;13.27;;;;;;;;;;4930837;28;20154;-69
2023/01/03 12:59:22;;;;;;;25.35;12.93;;;;;;;;;;4928673;28;20157;-71
2023/01/03 13:01:52;;;;;;;21.25;11.35;;;;;;;;;;4928667;28;20035;-69
2023/01/03 13:04:21;;;;;;;21.25;10.25;;;;;;;;;;4927536;28;20675;-69
2023/01/03 13:06:49;;;;;;;22.77;10.48;;;;;;;;;;4928423;28;20501;-69
2023/01/03 13:09:42;;;;;;;19.63;8.23;;;;;;;;;;4925944;28;20057;-69
2023/01/03 13:12:13;;;;;;;20.08;8.02;;;;;;;;;;4921810;28;20145;-70
2023/01/03 13:14:58;;;;;;;40.25;10.63;;;;;;;;;;4942131;28;20178;-68
2023/01/03 13:17:25;;;;;;;24.58;8.88;;;;;;;;;;4929031;28;20117;-70
2023/01/03 13:19:56;;;;;;;26.27;9.07;;;;;;;;;;4930582;28;20120;-69
2023/01/03 13:22:28;;;;;;;39.65;12.48;;;;;;;;;;4925599;28;20031;-70
2023/01/03 13:24:54;;;;;;;38.15;11.73;;;;;;;;;;4927912;28;20109;-71
2023/01/03 13:27:24;;;;;;;25.90;8.63;;;;;;;;;;4925734;28;20039;-70
2023/01/03 13:29:51;;;;;;;20.25;6.53;;;;;;;;;;4931883;28;20026;-71
2023/01/03 13:32:23;;;;;;;24.27;7.32;;;;;;;;;;4928963;28;20109;-69
2023/01/03 13:34:55;;;;;;;21.17;6.43;;;;;;;;;;4933112;28;20022;-71
2023/01/03 13:37:22;;;;;;;16.55;6.15;;;;;;;;;;4925382;28;20580;-68
2023/01/03 13:39:51;;;;;;;20.27;7.47;;;;;;;;;;4930126;28;20027;-69
2023/01/03 13:42:21;;;;;;;19.08;5.85;;;;;;;;;;4927833;28;20037;-70
2023/01/03 13:44:48;;;;;;;21.08;6.50;;;;;;;;;;4928227;28;20026;-69
2023/01/03 13:47:33;;;;;;;15.35;5.75;;;;;;;;;;4934297;28;20064;-71
2023/01/03 13:49:59;;;;;;;18.05;6.18;;;;;;;;;;4951841;28;20046;-69
2023/01/03 13:52:55;;;;;;;19.75;5.57;;;;;;;;;;4952657;28;20037;-68
2023/01/03 13:55:35;;;;;;;19.40;6.30;;;;;;;;;;4949934;28;20037;-68
2023/01/03 13:58:01;;;;;;;16.25;6.00;;;;;;;;;;4947712;28;20034;-69
2023/01/03 14:00:29;;;;;;;19.15;6.80;;;;;;;;;;4952598;28;20595;-70
2023/01/03 14:02:58;;;;;;;16.23;5.90;;;;;;;;;;4949822;28;20060;-70
2023/01/03 14:05:34;;;;;;;14.60;5.55;;;;;;;;;;4952576;28;20034;-68
2023/01/03 14:08:00;;;;;;;15.95;6.15;;;;;;;;;;4951183;28;20031;-69
2023/01/03 14:10:53;;;;;;;17.63;5.93;;;;;;;;;;4954086;28;20473;-69
2023/01/03 14:13:38;;;;;;;14.60;5.97;;;;;;;;;;4951113;28;20040;-69
2023/01/03 14:16:04;;;;;;;14.85;6.10;;;;;;;;;;4949606;28;20077;-69
2023/01/03 14:18:30;;;;;;;;;;;;;;;;;;4953560;28;20038;-70
2023/01/03 14:20:57;;;;;;;17.95;6.30;;;;;;;;;;4952961;28;20325;-68
2023/01/03 14:23:24;;;;;;;17.38;4.88;;;;;;;;;;4954195;28;20059;-69
2023/01/03 14:25:51;;;;;;;16.98;4.97;;;;;;;;;;4951866;28;20659;-70
2023/01/03 14:28:31;;;;;;;16.02;5.15;;;;;;;;;;4945132;28;20122;-70
2023/01/03 14:31:00;;;;;;;17.17;5.03;;;;;;;;;;4952641;28;20038;-69
2023/01/03 14:33:33;;;;;;;19.05;5.95;;;;;;;;;;4954865;28;20033;-69
2023/01/03 14:36:01;;;;;;;22.90;6.18;;;;;;;;;;4950695;28;20087;-69
2023/01/03 14:38:29;;;;;;;20.55;6.13;;;;;;;;;;4952778;28;20092;-71
2023/01/03 14:40:56;;;;;;;21.65;7.70;;;;;;;;;;4953121;28;20034;-70
2023/01/03 14:43:22;;;;;;;20.95;7.03;;;;;;;;;;4946798;28;20073;-68
2023/01/03 14:45:53;;;;;;;23.40;8.10;;;;;;;;;;4951433;28;20532;-70
2023/01/03 14:48:19;;;;;;;21.88;6.20;;;;;;;;;;4965165;28;20050;-70
2023/01/03 14:50:45;;;;;;;17.40;5.90;;;;;;;;;;4949662;28;20302;-70
2023/01/03 14:53:12;;;;;;;16.35;5.68;;;;;;;;;;4946895;28;20472;-70
2023/01/03 14:55:38;;;;;;;16.70;6.05;;;;;;;;;;4952028;28;20342;-70
2023/01/03 14:58:20;;;;;;;21.23;5.85;;;;;;;;;;4949824;28;20042;-70
2023/01/03 15:00:47;;;;;;;19.75;5.90;;;;;;;;;;4951960;28;20493;-71
2023/01/03 15:03:13;;;;;;;14.75;5.53;;;;;;;;;;4950193;28;20145;-70
2023/01/03 15:05:40;;;;;;;14.23;5.68;;;;;;;;;;4951737;28;20065;-68
2023/01/03 15:08:26;;;;;;;20.02;6.35;;;;;;;;;;4946542;28;20029;-69
2023/01/03 15:11:04;;;;;;;18.30;6.20;;;;;;;;;;4953923;28;20069;-69
2023/01/03 15:13:34;;;;;;;21.67;6.95;;;;;;;;;;4949366;28;20580;-69
2023/01/03 15:16:02;;;;;;;19.20;6.85;;;;;;;;;;4948800;28;20488;-70
2023/01/03 15:18:30;;;;;;;19.50;6.50;;;;;;;;;;4951819;28;20057;-69
2023/01/03 15:20:58;;;;;;;19.23;6.95;;;;;;;;;;4951664;28;20039;-70
2023/01/03 15:23:33;;;;;;;16.88;6.22;;;;;;;;;;4952373;28;20354;-70
2023/01/03 15:25:59;;;;;;;17.58;6.47;;;;;;;;;;4950387;28;21296;-70
2023/01/03 15:28:28;;;;;;;17.20;6.40;;;;;;;;;;4953238;28;20058;-70
2023/01/03 15:30:56;;;;;;;22.15;7.43;;;;;;;;;;4953340;28;20066;-70
2023/01/03 15:33:23;;;;;;;15.23;6.13;;;;;;;;;;4947567;28;20034;-68
2023/01/03 15:35:51;;;;;;;20.02;6.55;;;;;;;;;;4953071;28;20037;-70
2023/01/03 15:38:20;;;;;;;16.83;5.70;;;;;;;;;;4949671;28;20045;-70
2023/01/03 15:40:48;;;;;;;23.23;6.20;;;;;;;;;;4953421;28;20101;-70
2023/01/03 15:43:20;;;;;;;17.50;6.10;;;;;;;;;;4948375;28;20310;-69